Time;durP1;ratioP1;P1;durP2;ratioP2;P2;SDS_P1;SDS_P2;PMS_P1;PMS_P2;Temp;Humidity;BMP_temperature;BMP_pressure;BME280_temperature;BME280_humidity;BME280_pressure;Samples;Min_cycle;Max_cycle;Signal;HPM_P1;HPM_P2
2023/01/01 00:01:54;;;;;;;;;;;16.10;99.90;;;;;;5093190;28;19938;-79
2023/01/01 00:04:19;;;;;;;;;;;16.10;99.90;;;;;;5093097;28;20281;-79
2023/01/01 00:06:45;;;;;;;;;;;16.00;99.90;;;;;;5092742;28;19915;-78
2023/01/01 00:11:55;;;;;;;;;;;16.10;99.90;;;;;;5092960;28;20007;-79
2023/01/01 00:14:20;;;;;;;;;;;16.20;99.90;;;;;;5093013;28;19952;-79
2023/01/01 00:16:45;;;;;;;;;;;16.20;99.90;;;;;;5074755;28;19909;-79
2023/01/01 00:19:11;;;;;;;;;;;16.20;99.90;;;;;;5093079;28;19947;-79
2023/01/01 00:21:36;;;;;;;;;;;16.20;99.90;;;;;;5092986;28;19912;-79
2023/01/01 00:24:02;;;;;;;;;;;16.10;99.90;;;;;;5094558;28;19912;-77
2023/01/01 00:26:27;;;;;;;;;;;16.10;99.90;;;;;;5096792;28;20384;-80
2023/01/01 00:28:53;;;;;;;;;;;16.00;99.90;;;;;;5078497;28;20010;-80
2023/01/01 00:31:19;;;;;;;;;;;15.90;99.90;;;;;;5095953;28;19908;-80
2023/01/01 00:33:48;;;;;;;;;;;15.80;99.90;;;;;;5078507;28;19915;-81
2023/01/01 00:36:15;;;;;;;;;;;15.80;99.90;;;;;;5078587;28;19908;-81
2023/01/01 00:38:42;;;;;;;;;;;15.70;99.90;;;;;;5096130;28;19973;-81
2023/01/01 00:41:08;;;;;;;;;;;15.50;99.90;;;;;;5096254;28;19912;-81
2023/01/01 00:43:34;;;;;;;;;;;15.40;99.90;;;;;;5078712;28;20317;-78
2023/01/01 00:45:59;;;;;;;;;;;15.40;99.90;;;;;;5078318;28;20019;-79
2023/01/01 00:48:25;;;;;;;;;;;15.40;99.90;;;;;;5078231;28;19908;-82
2023/01/01 00:50:51;;;;;;;;;;;15.40;99.90;;;;;;5078371;28;19908;-82
2023/01/01 00:53:17;;;;;;;;;;;15.40;99.90;;;;;;5078096;28;19916;-81
2023/01/01 00:55:45;;;;;;;;;;;15.40;99.90;;;;;;5096337;28;19992;-80
2023/01/01 00:58:11;;;;;;;;;;;15.40;99.90;;;;;;5095744;28;19916;-78
2023/01/01 01:00:37;;;;;;;;;;;15.30;99.90;;;;;;5077980;28;20032;-80
2023/01/01 01:03:02;;;;;;;;;;;15.30;99.90;;;;;;5076941;28;19923;-79
2023/01/01 01:05:28;;;;;;;;;;;15.30;99.90;;;;;;5077563;28;19912;-80
2023/01/01 01:07:53;;;;;;;;;;;15.20;99.90;;;;;;5096291;28;19912;-80
2023/01/01 01:10:21;;;;;;;;;;;15.20;99.90;;;;;;5095826;28;19908;-79
2023/01/01 01:12:46;;;;;;;;;;;15.20;99.90;;;;;;5077089;28;19908;-79
2023/01/01 01:15:12;;;;;;;;;;;15.20;99.90;;;;;;5095155;28;19908;-79
2023/01/01 01:17:38;;;;;;;;;;;15.20;99.90;;;;;;5076911;28;19914;-79
2023/01/01 01:20:04;;;;;;;;;;;15.10;99.90;;;;;;5076673;28;19930;-79
2023/01/01 01:22:29;;;;;;;;;;;15.20;99.90;;;;;;5094887;28;19998;-79
2023/01/01 01:24:55;;;;;;;;;;;15.20;99.90;;;;;;5095025;28;20361;-79
2023/01/01 01:27:21;;;;;;;;;;;15.20;99.90;;;;;;5076981;28;20269;-79
2023/01/01 01:29:46;;;;;;;;;;;15.20;99.90;;;;;;5077059;28;19908;-79
2023/01/01 01:32:12;;;;;;;;;;;15.20;99.90;;;;;;5076533;28;19912;-78
2023/01/01 01:34:37;;;;;;;;;;;15.20;99.90;;;;;;5076557;28;19908;-79
2023/01/01 01:37:02;;;;;;;;;;;15.10;99.90;;;;;;5076453;28;20464;-79
2023/01/01 01:39:28;;;;;;;;;;;15.10;99.90;;;;;;5076541;28;19916;-79
2023/01/01 01:41:54;;;;;;;;;;;15.10;99.90;;;;;;5094300;28;19912;-79
2023/01/01 01:44:49;;;;;;;;;;;15.00;99.90;;;;;;5076600;28;19915;-79
2023/01/01 01:47:20;;;;;;;;;;;15.00;99.90;;;;;;5076903;28;19961;-79
2023/01/01 01:49:45;;;;;;;;;;;15.00;99.90;;;;;;5094453;28;19908;-81
2023/01/01 01:52:11;;;;;;;;;;;15.10;99.90;;;;;;5094516;28;19954;-81
2023/01/01 01:54:37;;;;;;;;;;;15.10;99.90;;;;;;5094728;28;19961;-81
2023/01/01 01:57:04;;;;;;;;;;;15.00;99.90;;;;;;5094422;28;19911;-80
2023/01/01 01:59:36;;;;;;;;;;;15.00;99.90;;;;;;5094620;28;20453;-81
2023/01/01 02:02:02;;;;;;;;;;;15.10;99.90;;;;;;5093868;28;20331;-81
2023/01/01 02:04:27;;;;;;;;;;;15.10;99.90;;;;;;5094641;28;19908;-81
2023/01/01 02:06:54;;;;;;;;;;;15.20;99.90;;;;;;5076043;28;19957;-80
2023/01/01 02:09:19;;;;;;;;;;;15.20;99.90;;;;;;5094430;28;19909;-81
2023/01/01 02:11:45;;;;;;;;;;;15.10;99.90;;;;;;5075913;28;20432;-81
2023/01/01 02:14:10;;;;;;;;;;;15.10;99.90;;;;;;5076134;28;20250;-81
2023/01/01 02:16:39;;;;;;;;;;;15.10;99.90;;;;;;5094029;28;19915;-82
2023/01/01 02:19:12;;;;;;;;;;;15.10;99.90;;;;;;5093875;28;19912;-80
2023/01/01 02:21:47;;;;;;;;;;;15.10;99.90;;;;;;5093274;28;19912;-80
2023/01/01 02:24:24;;;;;;;;;;;15.10;99.90;;;;;;5075586;28;19912;-82
2023/01/01 02:26:52;;;;;;;;;;;15.20;99.90;;;;;;5093703;28;19909;-81
2023/01/01 02:29:21;;;;;;;;;;;15.20;99.90;;;;;;5075534;28;20349;-79
2023/01/01 02:32:06;;;;;;;;;;;15.30;99.90;;;;;;5093434;28;19909;-79
2023/01/01 02:34:38;;;;;;;;;;;15.30;99.90;;;;;;5061503;28;19908;-79
2023/01/01 02:37:05;;;;;;;;;;;15.30;99.90;;;;;;5075526;28;19912;-79
2023/01/01 02:39:31;;;;;;;;;;;15.30;99.90;;;;;;5075262;28;19916;-79
2023/01/01 02:41:57;;;;;;;;;;;15.30;99.90;;;;;;5093183;28;19912;-81
2023/01/01 02:44:24;;;;;;;;;;;15.30;99.90;;;;;;5093530;28;20266;-81
2023/01/01 02:46:50;;;;;;;;;;;15.30;99.90;;;;;;5075250;28;19954;-81
2023/01/01 02:49:15;;;;;;;;;;;15.30;99.90;;;;;;5075419;28;19908;-80
2023/01/01 02:51:50;;;;;;;;;;;15.40;99.90;;;;;;5093463;28;20033;-79
2023/01/01 02:54:18;;;;;;;;;;;15.40;99.90;;;;;;5085308;28;19908;-81
2023/01/01 02:56:57;;;;;;;;;;;15.40;99.90;;;;;;5091070;28;19912;-81
2023/01/01 03:02:21;;;;;;;;;;;15.40;99.90;;;;;;5110439;28;19918;-80
2023/01/01 03:04:52;;;;;;;;;;;15.40;99.90;;;;;;5108921;28;19979;-80
2023/01/01 03:07:25;;;;;;;;;;;15.40;99.90;;;;;;5079752;28;19915;-81
2023/01/01 03:10:10;;;;;;;;;;;15.40;99.90;;;;;;5096718;28;19976;-81
2023/01/01 03:12:42;;;;;;;;;;;15.40;99.90;;;;;;5096289;28;19958;-81
2023/01/01 03:15:34;;;;;;;;;;;15.40;99.90;;;;;;5096226;28;19912;-81
2023/01/01 03:18:29;;;;;;;;;;;15.40;99.90;;;;;;5074417;28;19915;-81
2023/01/01 03:20:57;;;;;;;;;;;15.40;99.90;;;;;;5023506;28;19914;-81
2023/01/01 03:23:30;;;;;;;;;;;15.40;99.90;;;;;;5078140;28;19912;-81
2023/01/01 03:25:58;;;;;;;;;;;15.40;99.90;;;;;;5096448;28;19908;-81
2023/01/01 03:28:35;;;;;;;;;;;15.30;99.90;;;;;;5095800;28;19915;-81
2023/01/01 03:31:01;;;;;;;;;;;15.40;99.90;;;;;;5077833;28;19908;-81
2023/01/01 03:33:32;;;;;;;;;;;15.30;99.90;;;;;;5096225;28;19915;-81
2023/01/01 03:35:59;;;;;;;;;;;15.30;99.90;;;;;;5077573;28;19950;-81
2023/01/01 03:38:30;;;;;;;;;;;15.30;99.90;;;;;;5078088;28;20410;-81
2023/01/01 03:40:59;;;;;;;;;;;15.30;99.90;;;;;;5095763;28;20007;-81
2023/01/01 03:43:41;;;;;;;;;;;15.30;99.90;;;;;;5095642;28;19992;-81
2023/01/01 03:46:07;;;;;;;;;;;15.30;99.90;;;;;;5077638;28;19954;-81
2023/01/01 03:48:54;;;;;;;;;;;15.30;99.90;;;;;;5095141;28;19955;-81
2023/01/01 03:51:24;;;;;;;;;;;15.30;99.90;;;;;;5095473;28;19908;-81
2023/01/01 03:53:51;;;;;;;;;;;15.30;99.90;;;;;;5095392;28;20376;-80
2023/01/01 03:56:35;;;;;;;;;;;15.30;99.90;;;;;;5077324;28;19912;-81
2023/01/01 03:59:06;;;;;;;;;;;15.30;99.90;;;;;;5096434;28;19965;-81
2023/01/01 04:01:34;;;;;;;;;;;15.30;99.90;;;;;;5080699;28;20007;-81
2023/01/01 04:04:02;;;;;;;;;;;15.30;99.90;;;;;;5080688;28;19953;-79
2023/01/01 04:06:28;;;;;;;;;;;15.30;99.90;;;;;;5099027;28;19908;-80
2023/01/01 04:08:55;;;;;;;;;;;15.30;99.90;;;;;;5080407;28;19908;-81
2023/01/01 04:14:07;;;;;;;;;;;15.30;99.90;;;;;;5099609;28;19961;-81
2023/01/01 04:16:33;;;;;;;;;;;15.30;99.90;;;;;;5080502;28;20007;-81
2023/01/01 04:18:58;;;;;;;;;;;15.30;99.90;;;;;;5098838;28;19908;-79
2023/01/01 04:21:23;;;;;;;;;;;15.30;99.90;;;;;;5080204;28;20099;-81
2023/01/01 04:23:49;;;;;;;;;;;15.20;99.90;;;;;;5080248;28;19908;-81
2023/01/01 04:26:15;;;;;;;;;;;15.20;99.90;;;;;;5098790;28;19965;-80
2023/01/01 04:28:41;;;;;;;;;;;15.20;99.90;;;;;;5098219;28;19985;-81
2023/01/01 04:31:07;;;;;;;;;;;15.20;99.90;;;;;;5079838;28;20288;-81
2023/01/01 04:33:32;;;;;;;;;;;15.20;99.90;;;;;;5098033;28;19912;-81
2023/01/01 04:36:05;;;;;;;;;;;15.10;99.90;;;;;;5098324;28;20309;-81
2023/01/01 04:38:31;;;;;;;;;;;15.10;99.90;;;;;;5097625;28;20005;-81
2023/01/01 04:40:57;;;;;;;;;;;15.10;99.90;;;;;;5079236;28;19916;-79
2023/01/01 04:43:23;;;;;;;;;;;15.10;99.90;;;;;;5079355;28;20002;-79
2023/01/01 04:45:58;;;;;;;;;;;15.20;99.90;;;;;;5079253;28;19919;-80
2023/01/01 04:48:24;;;;;;;;;;;15.20;99.90;;;;;;5079450;28;20373;-81
2023/01/01 04:51:08;;;;;;;;;;;15.20;99.90;;;;;;5079580;28;19997;-81
2023/01/01 04:53:34;;;;;;;;;;;15.10;99.90;;;;;;5079757;28;19915;-81
2023/01/01 04:56:10;;;;;;;;;;;15.20;99.90;;;;;;5079238;28;19908;-80
2023/01/01 04:58:36;;;;;;;;;;;15.20;99.90;;;;;;5097294;28;20383;-81
2023/01/01 05:01:02;;;;;;;;;;;15.20;99.90;;;;;;5078682;28;19915;-81
2023/01/01 05:03:28;;;;;;;;;;;15.20;99.90;;;;;;5079020;28;19994;-79
2023/01/01 05:06:04;;;;;;;;;;;15.20;99.90;;;;;;5097365;28;19981;-81
2023/01/01 05:08:31;;;;;;;;;;;15.20;99.90;;;;;;5096625;28;19908;-80
2023/01/01 05:11:04;;;;;;;;;;;15.20;99.90;;;;;;5096990;28;19909;-81
2023/01/01 05:13:29;;;;;;;;;;;15.10;99.90;;;;;;5093769;28;19908;-80
2023/01/01 05:15:55;;;;;;;;;;;15.10;99.90;;;;;;5079814;28;19908;-80
2023/01/01 05:18:21;;;;;;;;;;;15.10;99.90;;;;;;5097842;28;19908;-80
2023/01/01 05:20:46;;;;;;;;;;;15.00;99.90;;;;;;5097365;28;20003;-80
2023/01/01 05:23:12;;;;;;;;;;;15.00;99.90;;;;;;5079502;28;19983;-81
2023/01/01 05:25:37;;;;;;;;;;;15.00;99.90;;;;;;5097126;28;19916;-80
2023/01/01 05:28:03;;;;;;;;;;;14.90;99.90;;;;;;5096230;28;19915;-81
2023/01/01 05:30:28;;;;;;;;;;;14.90;99.90;;;;;;5078154;28;19908;-80
2023/01/01 05:32:54;;;;;;;;;;;14.90;99.90;;;;;;5078244;28;20282;-81
2023/01/01 05:35:20;;;;;;;;;;;14.90;99.90;;;;;;5096691;28;19908;-81
2023/01/01 05:37:45;;;;;;;;;;;14.90;99.90;;;;;;5077866;28;19981;-80
2023/01/01 05:40:11;;;;;;;;;;;14.90;99.90;;;;;;5077948;28;19999;-81
2023/01/01 05:42:36;;;;;;;;;;;14.90;99.90;;;;;;5094368;28;19920;-80
2023/01/01 05:45:03;;;;;;;;;;;15.00;99.90;;;;;;5082946;28;19919;-81
2023/01/01 05:47:28;;;;;;;;;;;15.00;99.90;;;;;;5077853;28;19908;-81
2023/01/01 05:49:53;;;;;;;;;;;15.10;99.90;;;;;;5096060;28;19908;-81
2023/01/01 05:52:19;;;;;;;;;;;15.10;99.90;;;;;;5076831;28;19908;-80
2023/01/01 05:54:44;;;;;;;;;;;15.10;99.90;;;;;;5077810;28;19909;-81
2023/01/01 05:57:10;;;;;;;;;;;15.20;99.90;;;;;;5077089;28;20388;-81
2023/01/01 05:59:35;;;;;;;;;;;15.20;99.90;;;;;;5077535;28;19914;-80
2023/01/01 06:02:01;;;;;;;;;;;15.20;99.90;;;;;;5077087;28;19916;-81
2023/01/01 06:04:26;;;;;;;;;;;15.20;99.90;;;;;;5077101;28;19908;-79
2023/01/01 06:06:52;;;;;;;;;;;15.20;99.90;;;;;;5077367;28;19912;-81
2023/01/01 06:09:17;;;;;;;;;;;15.00;99.90;;;;;;5077358;28;19908;-80
2023/01/01 06:11:42;;;;;;;;;;;14.80;99.90;;;;;;5077305;28;20334;-81
2023/01/01 06:14:08;;;;;;;;;;;14.60;99.90;;;;;;5076980;28;19953;-81
2023/01/01 06:16:33;;;;;;;;;;;14.50;99.90;;;;;;5076801;28;19959;-79
2023/01/01 06:18:59;;;;;;;;;;;14.40;99.90;;;;;;5094870;28;20285;-80
2023/01/01 06:21:25;;;;;;;;;;;14.50;99.90;;;;;;5075908;28;19912;-79
2023/01/01 06:23:51;;;;;;;;;;;14.50;99.90;;;;;;5076985;28;19908;-81
2023/01/01 06:26:18;;;;;;;;;;;14.50;99.90;;;;;;5076587;28;19915;-81
2023/01/01 06:28:43;;;;;;;;;;;14.50;99.90;;;;;;5076514;28;19912;-80
2023/01/01 06:31:10;;;;;;;;;;;14.60;99.90;;;;;;5076268;28;19908;-81
2023/01/01 06:33:35;;;;;;;;;;;14.70;99.90;;;;;;5076510;28;20281;-80
2023/01/01 06:36:05;;;;;;;;;;;14.70;99.90;;;;;;5095125;28;19908;-79
2023/01/01 06:38:32;;;;;;;;;;;14.70;99.90;;;;;;5076202;28;20270;-81
2023/01/01 06:40:58;;;;;;;;;;;14.70;99.90;;;;;;5094819;28;19969;-81
2023/01/01 06:43:24;;;;;;;;;;;14.80;99.90;;;;;;5076766;28;20366;-81
2023/01/01 06:45:58;;;;;;;;;;;14.90;99.90;;;;;;5076917;28;19915;-80
2023/01/01 06:48:23;;;;;;;;;;;14.90;99.90;;;;;;5076569;28;20350;-80
2023/01/01 06:50:49;;;;;;;;;;;14.90;99.90;;;;;;5094435;28;19908;-81
2023/01/01 06:53:14;;;;;;;;;;;14.90;99.90;;;;;;5093971;28;19912;-81
2023/01/01 06:55:46;;;;;;;;;;;14.90;99.90;;;;;;5075943;28;19908;-80
2023/01/01 06:58:13;;;;;;;;;;;14.90;99.90;;;;;;5076407;28;19912;-81
2023/01/01 07:00:38;;;;;;;;;;;15.00;99.90;;;;;;5094428;28;19912;-80
2023/01/01 07:03:03;;;;;;;;;;;15.00;99.90;;;;;;5094192;28;19908;-79
2023/01/01 07:05:29;;;;;;;;;;;15.00;99.90;;;;;;5075834;28;19999;-80
2023/01/01 07:07:54;;;;;;;;;;;15.00;99.90;;;;;;5076024;28;19908;-80
2023/01/01 07:10:20;;;;;;;;;;;15.10;99.90;;;;;;5075790;28;19998;-80
2023/01/01 07:12:45;;;;;;;;;;;15.10;99.90;;;;;;5075613;28;19908;-79
2023/01/01 07:15:11;;;;;;;;;;;15.10;99.90;;;;;;5076192;28;19912;-81
2023/01/01 07:17:36;;;;;;;;;;;15.10;99.90;;;;;;5075845;28;19908;-79
2023/01/01 07:20:02;;;;;;;;;;;15.20;99.90;;;;;;5075725;28;20049;-80
2023/01/01 07:22:27;;;;;;;;;;;15.20;99.90;;;;;;5075875;28;19908;-79
2023/01/01 07:24:52;;;;;;;;;;;15.20;99.90;;;;;;5093832;28;20049;-81
2023/01/01 07:27:18;;;;;;;;;;;15.20;99.90;;;;;;5094505;28;20384;-81
2023/01/01 07:29:43;;;;;;;;;;;15.20;99.90;;;;;;5094072;28;19908;-79
2023/01/01 07:32:12;;;;;;;;;;;15.30;99.90;;;;;;5093702;28;19912;-80
2023/01/01 07:34:38;;;;;;;;;;;15.30;99.90;;;;;;5098330;28;19955;-80
2023/01/01 07:37:03;;;;;;;;;;;15.30;99.90;;;;;;5079756;28;20373;-80
2023/01/01 07:39:29;;;;;;;;;;;15.30;99.90;;;;;;5079424;28;19924;-80
2023/01/01 07:41:54;;;;;;;;;;;15.30;99.90;;;;;;5097388;28;19959;-80
2023/01/01 07:44:20;;;;;;;;;;;15.30;99.90;;;;;;5098089;28;19954;-79
2023/01/01 07:46:45;;;;;;;;;;;15.30;99.90;;;;;;5098311;28;19908;-79
2023/01/01 07:49:11;;;;;;;;;;;15.30;99.90;;;;;;5079541;28;19955;-80
2023/01/01 07:51:36;;;;;;;;;;;15.20;99.90;;;;;;5079171;28;19908;-79
2023/01/01 07:54:02;;;;;;;;;;;15.10;99.90;;;;;;5079268;28;19912;-80
2023/01/01 07:56:27;;;;;;;;;;;15.00;99.90;;;;;;5079200;28;20030;-79
2023/01/01 07:58:52;;;;;;;;;;;15.00;99.90;;;;;;5079009;28;19951;-80
2023/01/01 08:01:18;;;;;;;;;;;15.00;99.90;;;;;;5097113;28;19912;-81
2023/01/01 08:03:43;;;;;;;;;;;15.00;99.90;;;;;;5097600;28;19908;-80
2023/01/01 08:06:10;;;;;;;;;;;15.10;99.90;;;;;;5078971;28;19912;-80
2023/01/01 08:08:35;;;;;;;;;;;15.10;99.90;;;;;;5079220;28;19916;-80
2023/01/01 08:11:01;;;;;;;;;;;15.20;99.90;;;;;;5078884;28;20282;-79
2023/01/01 08:13:26;;;;;;;;;;;15.30;99.90;;;;;;5078856;28;19957;-80
2023/01/01 08:15:54;;;;;;;;;;;15.30;99.90;;;;;;5097015;28;19912;-79
2023/01/01 08:18:19;;;;;;;;;;;15.30;99.90;;;;;;5078645;28;19974;-80
2023/01/01 08:20:45;;;;;;;;;;;15.30;99.90;;;;;;5096788;28;19947;-80
2023/01/01 08:23:10;;;;;;;;;;;15.40;99.90;;;;;;5078416;28;20358;-80
2023/01/01 08:25:36;;;;;;;;;;;15.40;99.90;;;;;;5078216;28;19957;-80
2023/01/01 08:28:01;;;;;;;;;;;15.40;99.90;;;;;;5096383;28;19919;-80
2023/01/01 08:30:27;;;;;;;;;;;15.30;99.90;;;;;;5078071;28;19953;-79
2023/01/01 08:32:52;;;;;;;;;;;15.40;99.90;;;;;;5077930;28;20358;-80
2023/01/01 08:35:18;;;;;;;;;;;15.40;99.90;;;;;;5078374;28;19908;-81
2023/01/01 08:37:43;;;;;;;;;;;15.40;99.90;;;;;;5096634;28;19912;-80
2023/01/01 08:40:10;;;;;;;;;;;15.40;99.90;;;;;;5077762;28;19919;-79
2023/01/01 08:42:35;;;;;;;;;;;15.30;99.90;;;;;;5095808;28;19908;-79
2023/01/01 08:45:01;;;;;;;;;;;15.30;99.90;;;;;;5077377;28;20372;-80
2023/01/01 08:47:26;;;;;;;;;;;15.30;99.90;;;;;;5095893;28;19908;-79
2023/01/01 08:49:52;;;;;;;;;;;15.30;99.90;;;;;;5096189;28;19926;-81
2023/01/01 08:52:18;;;;;;;;;;;15.40;99.90;;;;;;5094395;28;19915;-80
2023/01/01 08:54:44;;;;;;;;;;;15.40;99.90;;;;;;5077980;28;19912;-80
2023/01/01 08:57:09;;;;;;;;;;;15.40;99.90;;;;;;5097508;28;19957;-81
2023/01/01 08:59:35;;;;;;;;;;;15.50;99.90;;;;;;5078970;28;19908;-81
2023/01/01 09:02:00;;;;;;;;;;;15.40;99.90;;;;;;5077605;28;20014;-80
2023/01/01 09:04:25;;;;;;;;;;;15.30;99.90;;;;;;5077638;28;19909;-80
2023/01/01 09:06:51;;;;;;;;;;;15.40;99.90;;;;;;5077539;28;20308;-79
2023/01/01 09:09:16;;;;;;;;;;;15.40;99.90;;;;;;5077454;28;19947;-80
2023/01/01 09:11:52;;;;;;;;;;;15.30;99.90;;;;;;5077220;28;19912;-79
2023/01/01 09:14:18;;;;;;;;;;;15.30;99.90;;;;;;5077482;28;19958;-80
2023/01/01 09:16:43;;;;;;;;;;;15.30;99.90;;;;;;5077084;28;19916;-80
2023/01/01 09:19:09;;;;;;;;;;;15.20;99.90;;;;;;5077100;28;19908;-80
2023/01/01 09:21:34;;;;;;;;;;;15.30;99.90;;;;;;5095304;28;20376;-80
2023/01/01 09:23:59;;;;;;;;;;;15.30;99.90;;;;;;5095530;28;19908;-80
2023/01/01 09:26:25;;;;;;;;;;;15.30;99.90;;;;;;5077337;28;20003;-80
2023/01/01 09:28:51;;;;;;;;;;;15.40;99.90;;;;;;5077208;28;19915;-80
2023/01/01 09:31:16;;;;;;;;;;;15.50;99.90;;;;;;5076433;28;19908;-79
2023/01/01 09:33:42;;;;;;;;;;;15.40;99.90;;;;;;5094924;28;19908;-79
2023/01/01 09:36:15;;;;;;;;;;;15.50;99.90;;;;;;5077032;28;19987;-81
2023/01/01 09:38:40;;;;;;;;;;;15.50;99.90;;;;;;5095817;28;19916;-79
2023/01/01 09:41:31;;;;;;;;;;;15.60;99.90;;;;;;5077039;28;20050;-79
2023/01/01 09:44:15;;;;;;;;;;;15.70;99.90;;;;;;5094136;28;19915;-79
2023/01/01 09:46:40;;;;;;;;;;;15.70;99.90;;;;;;5095475;28;19908;-80
2023/01/01 09:49:11;;;;;;;;;;;15.70;99.90;;;;;;5077085;28;19916;-80
2023/01/01 09:51:38;;;;;;;;;;;15.70;99.90;;;;;;5094807;28;19908;-82
2023/01/01 09:54:15;;;;;;;;;;;15.70;99.90;;;;;;5076742;28;19915;-82
2023/01/01 09:56:43;;;;;;;;;;;15.80;99.90;;;;;;5076751;28;19908;-82
2023/01/01 09:59:09;;;;;;;;;;;15.80;99.90;;;;;;5095109;28;20001;-80
2023/01/01 10:01:50;;;;;;;;;;;15.90;99.90;;;;;;5076680;28;19964;-81
2023/01/01 10:04:21;;;;;;;;;;;15.90;99.90;;;;;;5077111;28;19911;-82
2023/01/01 10:06:55;;;;;;;;;;;16.00;99.90;;;;;;5076179;28;19908;-80
2023/01/01 10:09:20;;;;;;;;;;;16.10;99.90;;;;;;5094094;28;19908;-83
2023/01/01 10:12:04;;;;;;;;;;;16.20;99.90;;;;;;5075827;28;19915;-80
2023/01/01 10:14:35;;;;;;;;;;;16.20;99.90;;;;;;5075746;28;19908;-79
2023/01/01 10:17:05;;;;;;;;;;;16.20;99.90;;;;;;5094197;28;19908;-82
2023/01/01 10:19:33;;;;;;;;;;;16.30;99.90;;;;;;5075476;28;19909;-80
2023/01/01 10:22:07;;;;;;;;;;;16.20;99.90;;;;;;5075169;28;20392;-80
2023/01/01 10:24:48;;;;;;;;;;;16.20;99.90;;;;;;5075559;28;19908;-80
2023/01/01 10:27:22;;;;;;;;;;;16.20;99.90;;;;;;5075639;28;19915;-80
2023/01/01 10:29:49;;;;;;;;;;;16.10;99.90;;;;;;5075730;28;20001;-81
2023/01/01 10:32:25;;;;;;;;;;;16.20;99.90;;;;;;5076211;28;19908;-81
2023/01/01 10:34:51;;;;;;;;;;;16.00;99.90;;;;;;5077090;28;19916;-80
2023/01/01 10:37:16;;;;;;;;;;;16.10;99.90;;;;;;5076395;28;19916;-81
2023/01/01 10:39:43;;;;;;;;;;;16.10;99.90;;;;;;5094518;28;20400;-81
2023/01/01 10:42:12;;;;;;;;;;;16.10;99.90;;;;;;5076479;28;19912;-81
2023/01/01 10:44:38;;;;;;;;;;;16.10;99.90;;;;;;5077311;28;19912;-81
2023/01/01 10:47:15;;;;;;;;;;;16.20;99.90;;;;;;5076664;28;19915;-81
2023/01/01 10:50:00;;;;;;;;;;;16.10;99.90;;;;;;5095033;28;19908;-81
2023/01/01 10:52:27;;;;;;;;;;;16.20;99.90;;;;;;5093704;28;19922;-80
2023/01/01 10:54:52;;;;;;;;;;;16.10;99.90;;;;;;5093405;28;19912;-80
2023/01/01 10:57:18;;;;;;;;;;;16.20;99.90;;;;;;5075935;28;20289;-79
2023/01/01 10:59:44;;;;;;;;;;;16.20;99.90;;;;;;5075155;28;20379;-79
2023/01/01 11:02:15;;;;;;;;;;;16.30;99.90;;;;;;5075131;28;20380;-80
2023/01/01 11:04:41;;;;;;;;;;;16.30;99.90;;;;;;5094698;28;19912;-81
2023/01/01 11:07:06;;;;;;;;;;;16.40;99.90;;;;;;5076580;28;20258;-79
2023/01/01 11:09:35;;;;;;;;;;;16.40;99.90;;;;;;5094439;28;20053;-80
2023/01/01 11:12:05;;;;;;;;;;;16.30;99.90;;;;;;5075894;28;19909;-82
2023/01/01 11:14:38;;;;;;;;;;;16.20;99.90;;;;;;5093372;28;19915;-81
2023/01/01 11:17:04;;;;;;;;;;;16.20;99.90;;;;;;5093551;28;19975;-81
2023/01/01 11:19:31;;;;;;;;;;;16.20;99.90;;;;;;5093512;28;20009;-82
2023/01/01 11:21:56;;;;;;;;;;;16.20;99.90;;;;;;5074669;28;19924;-80
2023/01/01 11:24:23;;;;;;;;;;;16.10;99.90;;;;;;5075464;28;19919;-80
2023/01/01 11:26:49;;;;;;;;;;;16.10;99.90;;;;;;5075387;28;19931;-80
2023/01/01 11:29:14;;;;;;;;;;;16.00;99.90;;;;;;5075013;28;19908;-81
2023/01/01 11:31:40;;;;;;;;;;;15.90;99.90;;;;;;5092783;28;19967;-79
2023/01/01 11:34:20;;;;;;;;;;;16.00;99.90;;;;;;5075008;28;19915;-80
2023/01/01 11:36:45;;;;;;;;;;;16.00;99.90;;;;;;5091867;28;19908;-80
2023/01/01 11:39:25;;;;;;;;;;;15.90;99.90;;;;;;5093423;28;19916;-80
2023/01/01 11:41:52;;;;;;;;;;;15.90;99.90;;;;;;5090441;28;20504;-81
2023/01/01 11:44:24;;;;;;;;;;;16.00;99.90;;;;;;5073096;28;19912;-81
2023/01/01 11:46:49;;;;;;;;;;;16.10;99.90;;;;;;5073899;28;19908;-81
2023/01/01 11:49:21;;;;;;;;;;;16.10;99.90;;;;;;5074074;28;19916;-80
2023/01/01 11:51:46;;;;;;;;;;;16.20;99.90;;;;;;5074010;28;19908;-79
2023/01/01 11:54:24;;;;;;;;;;;16.10;99.90;;;;;;5074365;28;19915;-81
2023/01/01 11:56:52;;;;;;;;;;;16.00;99.90;;;;;;5072960;28;19908;-80
2023/01/01 11:59:20;;;;;;;;;;;16.00;99.90;;;;;;5074450;28;20049;-81
2023/01/01 12:01:47;;;;;;;;;;;16.00;99.90;;;;;;5071989;28;19961;-81
2023/01/01 12:04:23;;;;;;;;;;;16.10;99.90;;;;;;5072853;28;19916;-81
2023/01/01 12:06:55;;;;;;;;;;;16.10;99.90;;;;;;5074834;28;20496;-82
2023/01/01 12:09:20;;;;;;;;;;;16.10;99.90;;;;;;5070836;28;19916;-82
2023/01/01 12:11:48;;;;;;;;;;;16.20;99.90;;;;;;5073866;28;19916;-81
2023/01/01 12:14:17;;;;;;;;;;;16.30;99.90;;;;;;5092089;28;19948;-81
2023/01/01 12:16:52;;;;;;;;;;;16.50;99.90;;;;;;5078403;28;20270;-81
2023/01/01 12:19:29;;;;;;;;;;;16.60;99.90;;;;;;5083381;28;19908;-83
2023/01/01 12:21:57;;;;;;;;;;;16.70;99.90;;;;;;5086367;28;19919;-84
2023/01/01 12:24:24;;;;;;;;;;;16.70;99.90;;;;;;5086940;28;19951;-80
2023/01/01 12:27:14;;;;;;;;;;;16.80;99.90;;;;;;5085657;28;19936;-81
2023/01/01 12:29:49;;;;;;;;;;;16.80;99.90;;;;;;5083146;28;19915;-81
2023/01/01 12:32:21;;;;;;;;;;;16.90;99.90;;;;;;5081699;28;20328;-82
2023/01/01 12:35:05;;;;;;;;;;;16.90;99.90;;;;;;5081768;28;19912;-82
2023/01/01 12:37:30;;;;;;;;;;;16.90;99.90;;;;;;5100567;28;19908;-82
2023/01/01 12:39:56;;;;;;;;;;;16.90;99.90;;;;;;5081916;28;19916;-82
2023/01/01 12:42:30;;;;;;;;;;;16.90;99.90;;;;;;5089449;28;20023;-82
2023/01/01 12:44:56;;;;;;;;;;;16.70;99.90;;;;;;5098243;28;19912;-82
2023/01/01 12:47:24;;;;;;;;;;;16.70;99.90;;;;;;5082139;28;19920;-82
2023/01/01 12:50:09;;;;;;;;;;;16.60;99.90;;;;;;5085719;28;20042;-82
2023/01/01 12:52:53;;;;;;;;;;;16.60;99.90;;;;;;5096572;28;19919;-82
2023/01/01 12:55:38;;;;;;;;;;;16.50;99.90;;;;;;5081518;28;19908;-81
2023/01/01 12:58:12;;;;;;;;;;;16.50;99.90;;;;;;5081073;28;20370;-81
2023/01/01 13:00:39;;;;;;;;;;;16.50;99.90;;;;;;5081208;28;19912;-81
2023/01/01 13:03:17;;;;;;;;;;;16.50;99.90;;;;;;5080898;28;20397;-82
2023/01/01 13:05:45;;;;;;;;;;;16.50;99.90;;;;;;5081270;28;20313;-81
2023/01/01 13:08:10;;;;;;;;;;;16.50;99.90;;;;;;5081007;28;19915;-82
2023/01/01 13:10:37;;;;;;;;;;;16.50;99.90;;;;;;5099287;28;20284;-81
2023/01/01 13:13:03;;;;;;;;;;;16.50;99.90;;;;;;5098646;28;19914;-81
2023/01/01 13:15:38;;;;;;;;;;;16.60;99.90;;;;;;5098620;28;20300;-81
2023/01/01 13:18:04;;;;;;;;;;;16.60;99.90;;;;;;5079599;28;20369;-82
2023/01/01 13:20:29;;;;;;;;;;;16.50;99.90;;;;;;5076843;28;19923;-80
2023/01/01 13:22:55;;;;;;;;;;;16.40;99.90;;;;;;5096847;28;20385;-80
2023/01/01 13:25:22;;;;;;;;;;;16.40;99.90;;;;;;5097519;28;19912;-80
2023/01/01 13:27:54;;;;;;;;;;;16.30;99.90;;;;;;5079479;28;19908;-80
2023/01/01 13:30:34;;;;;;;;;;;16.20;99.90;;;;;;5097322;28;19912;-80
2023/01/01 13:33:22;;;;;;;;;;;16.10;99.90;;;;;;5079049;28;20324;-79
2023/01/01 13:36:13;;;;;;;;;;;16.10;99.90;;;;;;5079898;28;20384;-79
2023/01/01 13:38:44;;;;;;;;;;;16.00;99.90;;;;;;5080952;28;19923;-81
2023/01/01 13:41:25;;;;;;;;;;;16.00;99.90;;;;;;5098564;28;19939;-79
2023/01/01 13:44:01;;;;;;;;;;;16.00;99.90;;;;;;5081322;28;20365;-80
2023/01/01 13:46:39;;;;;;;;;;;16.10;99.90;;;;;;5080553;28;20277;-79
2023/01/01 13:49:11;;;;;;;;;;;16.10;99.90;;;;;;5079860;28;19956;-80
2023/01/01 13:51:42;;;;;;;;;;;16.10;99.90;;;;;;5079926;28;20002;-80
2023/01/01 13:54:08;;;;;;;;;;;16.20;99.90;;;;;;5098475;28;20001;-79
2023/01/01 13:56:36;;;;;;;;;;;16.20;99.90;;;;;;5097149;28;20331;-80
2023/01/01 13:59:17;;;;;;;;;;;16.20;99.90;;;;;;5076204;28;19962;-80
2023/01/01 14:02:03;;;;;;;;;;;16.20;99.90;;;;;;5059893;28;20393;-80
2023/01/01 14:04:30;;;;;;;;;;;16.30;99.90;;;;;;5060658;28;20409;-79
2023/01/01 14:06:58;;;;;;;;;;;16.30;99.90;;;;;;5077874;28;20532;-80
2023/01/01 14:09:23;;;;;;;;;;;16.30;99.90;;;;;;5059771;28;19909;-80
2023/01/01 14:11:49;;;;;;;;;;;16.20;99.90;;;;;;5058721;28;19915;-79
2023/01/01 14:14:22;;;;;;;;;;;16.20;99.90;;;;;;5057698;28;19963;-79
2023/01/01 14:16:51;;;;;;;;;;;16.10;99.90;;;;;;5075979;28;19915;-80
2023/01/01 14:19:17;;;;;;;;;;;16.10;99.90;;;;;;5059197;28;20324;-79
2023/01/01 14:21:43;;;;;;;;;;;16.10;99.90;;;;;;5075921;28;19917;-80
2023/01/01 14:24:12;;;;;;;;;;;16.10;99.90;;;;;;5058983;28;19908;-81
2023/01/01 14:26:37;;;;;;;;;;;16.10;99.90;;;;;;5077423;28;19909;-80
2023/01/01 14:29:07;;;;;;;;;;;16.00;99.90;;;;;;5058216;28;19916;-80
2023/01/01 14:31:34;;;;;;;;;;;16.00;99.90;;;;;;5075998;28;19915;-80
2023/01/01 14:34:01;;;;;;;;;;;16.00;99.90;;;;;;5058021;28;19909;-80